createdAt,value
2019-01-19T00:00:08.110Z,-1.75
2019-01-19T00:03:11.329Z,-1.75
2019-01-19T00:06:45.672Z,-1.80
2019-01-19T00:10:35.680Z,-1.82
2019-01-19T00:13:59.329Z,-1.91
2019-01-19T00:17:00.362Z,-1.90
2019-01-19T00:20:43.781Z,-1.87
2019-01-19T00:24:11.682Z,-1.97
2019-01-19T00:27:28.392Z,-2.21
2019-01-19T00:30:58.715Z,-2.18
2019-01-19T00:34:14.031Z,-2.06
2019-01-19T00:37:03.670Z,-2.02
2019-01-19T00:40:52.776Z,-2.02
2019-01-19T00:43:57.538Z,-2.06
2019-01-19T00:47:23.080Z,-2.06
2019-01-19T00:50:48.141Z,-2.17
2019-01-19T00:53:30.793Z,-2.17
2019-01-19T00:56:46.893Z,-2.14
2019-01-19T00:59:35.289Z,-2.14
2019-01-19T01:02:27.663Z,-2.14
2019-01-19T01:05:25.461Z,-2.16
2019-01-19T01:11:38.800Z,-2.29
2019-01-19T01:15:04.651Z,-2.33
2019-01-19T01:18:27.312Z,-2.37
2019-01-19T01:21:47.705Z,-2.38
2019-01-19T01:25:21.286Z,-2.35
2019-01-19T01:28:29.659Z,-2.28
2019-01-19T01:31:29.285Z,-2.26
2019-01-19T01:34:56.080Z,-2.30
2019-01-19T01:38:15.761Z,-2.33
2019-01-19T01:41:39.321Z,-2.30
2019-01-19T01:44:56.686Z,-2.33
2019-01-19T01:48:20.743Z,-2.41
2019-01-19T01:51:05.283Z,-2.40
2019-01-19T01:54:19.556Z,-2.36
2019-01-19T01:56:51.707Z,-2.37
2019-01-19T01:59:59.593Z,-2.38
2019-01-19T02:02:56.945Z,-2.33
2019-01-19T02:06:07.119Z,-2.19
2019-01-19T02:08:57.284Z,-2.19
2019-01-19T02:11:49.118Z,-2.18
2019-01-19T02:14:40.689Z,-2.21
2019-01-19T02:18:10.718Z,-2.18
2019-01-19T02:21:26.289Z,-2.18
2019-01-19T02:24:41.535Z,-2.19
2019-01-19T02:27:55.955Z,-2.18
2019-01-19T02:31:45.113Z,-2.18
2019-01-19T02:35:02.718Z,-2.19
2019-01-19T02:38:10.387Z,-2.19
2019-01-19T02:41:36.282Z,-2.24
2019-01-19T02:44:40.275Z,-2.27
2019-01-19T02:47:40.622Z,-2.25
2019-01-19T02:50:44.295Z,-2.24
2019-01-19T02:53:44.369Z,-2.24
2019-01-19T02:56:40.531Z,-2.25
2019-01-19T02:59:26.667Z,-2.35
2019-01-19T03:02:54.690Z,-2.35
2019-01-19T03:06:05.285Z,-2.37
2019-01-19T03:09:32.379Z,-2.43
2019-01-19T03:12:58.653Z,-2.45
2019-01-19T03:16:08.586Z,-2.49
2019-01-19T03:19:41.123Z,-2.48
2019-01-19T03:22:54.701Z,-2.51
2019-01-19T03:25:57.149Z,-2.50
2019-01-19T03:29:34.584Z,-2.47
2019-01-19T03:33:10.306Z,-2.51
2019-01-19T03:36:30.897Z,-2.47
2019-01-19T03:40:17.140Z,-2.53
2019-01-19T03:43:23.604Z,-2.61
2019-01-19T03:47:01.342Z,-2.68
2019-01-19T03:50:24.296Z,-2.75
2019-01-19T03:54:16.744Z,-2.79
2019-01-19T03:57:06.337Z,-2.80
2019-01-19T04:00:26.238Z,-2.83
2019-01-19T04:03:39.711Z,-2.84
2019-01-19T04:06:27.909Z,-2.92
2019-01-19T04:09:48.675Z,-2.92
2019-01-19T04:13:09.272Z,-2.80
2019-01-19T04:16:49.751Z,-2.83
2019-01-19T04:20:15.591Z,-2.88
2019-01-19T04:22:55.700Z,-2.91
2019-01-19T04:25:59.686Z,-2.94
2019-01-19T04:28:31.964Z,-2.97
2019-01-19T04:31:03.945Z,-2.98
2019-01-19T04:33:35.940Z,-2.98
2019-01-19T04:36:09.109Z,-2.98
2019-01-19T04:38:42.087Z,-2.98
2019-01-19T04:41:14.136Z,-3.04
2019-01-19T04:43:44.876Z,-3.03
2019-01-19T04:46:16.952Z,-3.08
2019-01-19T04:48:49.289Z,-3.11
2019-01-19T04:51:21.307Z,-3.11
2019-01-19T04:53:51.873Z,-3.17
2019-01-19T04:56:24.177Z,-3.17
2019-01-19T04:58:54.879Z,-3.16
2019-01-19T05:01:26.919Z,-3.18
2019-01-19T05:03:58.958Z,-3.17
2019-01-19T05:06:30.944Z,-3.20
2019-01-19T05:09:03.296Z,-3.20
2019-01-19T05:11:35.146Z,-3.20
2019-01-19T05:14:07.320Z,-3.26
2019-01-19T05:16:39.104Z,-3.26
2019-01-19T05:19:11.277Z,-3.27
2019-01-19T05:21:42.516Z,-3.31
2019-01-19T05:24:14.665Z,-3.36
2019-01-19T05:26:46.761Z,-3.36
2019-01-19T05:29:18.784Z,-3.42
2019-01-19T05:31:50.955Z,-3.42
2019-01-19T05:34:22.946Z,-3.44
2019-01-19T05:36:55.125Z,-3.53
2019-01-19T05:39:27.283Z,-3.53
2019-01-19T05:41:57.708Z,-3.44
2019-01-19T05:44:29.781Z,-3.47
2019-01-19T05:47:01.934Z,-3.48
2019-01-19T05:49:33.962Z,-3.44
2019-01-19T05:52:06.349Z,-3.42
2019-01-19T05:54:37.029Z,-3.43
2019-01-19T05:57:09.284Z,-3.46
2019-01-19T05:59:39.976Z,-3.49
2019-01-19T06:02:12.295Z,-3.50
2019-01-19T06:04:42.876Z,-3.48
2019-01-19T06:07:14.929Z,-3.48
2019-01-19T06:09:47.271Z,-3.50
2019-01-19T06:12:17.874Z,-3.50
2019-01-19T06:14:49.954Z,-3.48
2019-01-19T06:17:23.413Z,-3.48
2019-01-19T06:19:55.368Z,-3.49
2019-01-19T06:22:26.118Z,-3.52
2019-01-19T06:24:58.317Z,-3.51
2019-01-19T06:27:29.016Z,-3.55
2019-01-19T06:30:01.154Z,-3.57
2019-01-19T06:32:33.371Z,-3.61
2019-01-19T06:35:05.800Z,-3.61
2019-01-19T06:37:37.959Z,-3.61
2019-01-19T06:40:11.999Z,-3.59
2019-01-19T06:42:44.360Z,-3.55
2019-01-19T06:45:25.342Z,-3.54
2019-01-19T06:47:57.911Z,-3.57
2019-01-19T06:50:29.953Z,-3.55
2019-01-19T06:53:01.953Z,-3.60
2019-01-19T06:55:36.762Z,-3.59
2019-01-19T06:58:08.907Z,-3.52
2019-01-19T07:00:40.952Z,-3.52
2019-01-19T07:03:13.086Z,-3.53
2019-01-19T07:05:45.115Z,-3.55
2019-01-19T07:08:16.016Z,-3.54
2019-01-19T07:10:48.284Z,-3.56
2019-01-19T07:13:18.712Z,-3.56
2019-01-19T07:15:52.217Z,-3.53
2019-01-19T07:18:24.287Z,-3.41
2019-01-19T07:20:54.997Z,-3.41
2019-01-19T07:23:26.943Z,-3.34
2019-01-19T07:25:58.948Z,-3.34
2019-01-19T07:28:31.154Z,-3.27
2019-01-19T07:31:01.994Z,-3.18
2019-01-19T07:33:34.141Z,-3.16
2019-01-19T07:36:06.361Z,-3.08
2019-01-19T07:38:38.684Z,-2.81
2019-01-19T07:41:10.870Z,-2.81
2019-01-19T07:43:43.280Z,-2.72
2019-01-19T07:46:14.285Z,-2.69
2019-01-19T07:48:45.028Z,-2.65
2019-01-19T07:51:17.106Z,-2.57
2019-01-19T07:53:49.279Z,-2.44
2019-01-19T07:56:20.024Z,-2.36
2019-01-19T07:58:52.276Z,-2.29
2019-01-19T08:01:24.313Z,-2.27
2019-01-19T08:03:56.279Z,-2.17
2019-01-19T08:06:47.713Z,-1.99
2019-01-19T08:09:20.578Z,-1.99
2019-01-19T08:11:52.684Z,-1.87
2019-01-19T08:14:24.947Z,-1.77
2019-01-19T08:16:57.123Z,-1.65
2019-01-19T08:19:29.283Z,-1.59
2019-01-19T08:22:00.002Z,-1.51
2019-01-19T08:24:32.257Z,-1.52
2019-01-19T08:27:03.396Z,-1.46
2019-01-19T08:29:35.671Z,-1.28
2019-01-19T08:32:08.272Z,-1.28
2019-01-19T08:34:40.464Z,-1.09
2019-01-19T08:37:13.111Z,-0.92
2019-01-19T08:39:46.238Z,-0.91
2019-01-19T08:42:16.863Z,-0.91
2019-01-19T08:44:49.081Z,-0.74
2019-01-19T08:47:21.083Z,-0.31
2019-01-19T08:49:53.275Z,-0.08
2019-01-19T08:52:23.864Z,0.05
2019-01-19T08:54:56.076Z,0.05
2019-01-19T08:57:28.298Z,0.27
2019-01-19T09:00:00.346Z,0.48
2019-01-19T09:02:32.303Z,0.73
2019-01-19T09:05:04.279Z,0.73
2019-01-19T09:07:36.870Z,0.93
2019-01-19T09:10:11.953Z,1.05
2019-01-19T09:12:43.943Z,1.14
2019-01-19T09:15:17.272Z,1.34
2019-01-19T09:17:47.830Z,1.78
2019-01-19T09:20:20.278Z,2.22
2019-01-19T09:22:54.284Z,2.59
2019-01-19T09:25:25.052Z,2.77
2019-01-19T09:27:57.321Z,2.69
2019-01-19T09:30:29.274Z,2.54
2019-01-19T09:33:00.681Z,2.48
2019-01-19T09:35:33.205Z,2.58
2019-01-19T09:38:05.564Z,3.04
2019-01-19T09:42:31.457Z,4.25
2019-01-19T09:45:03.952Z,4.25
2019-01-19T09:47:36.337Z,4.48
2019-01-19T09:50:10.862Z,4.81
2019-01-19T09:52:43.367Z,5.01
2019-01-19T09:55:15.876Z,5.33
2019-01-19T09:57:48.284Z,5.33
2019-01-19T10:00:19.234Z,5.40
2019-01-19T10:02:50.115Z,5.30
2019-01-19T10:05:22.686Z,4.98
2019-01-19T10:07:55.475Z,5.02
2019-01-19T10:10:28.268Z,4.96
2019-01-19T10:13:00.311Z,4.96
2019-01-19T10:15:32.275Z,4.83
2019-01-19T10:18:02.800Z,5.00
2019-01-19T10:20:35.103Z,5.00
2019-01-19T10:23:06.007Z,5.24
2019-01-19T10:25:38.278Z,5.38
2019-01-19T10:28:08.954Z,5.94
2019-01-19T10:30:41.276Z,5.94
2019-01-19T10:33:12.291Z,6.25
2019-01-19T10:35:44.494Z,6.41
2019-01-19T10:38:16.754Z,6.52
2019-01-19T10:40:49.276Z,6.58
2019-01-19T10:43:19.731Z,6.48
2019-01-19T10:45:51.948Z,6.37
2019-01-19T10:48:24.283Z,6.31
2019-01-19T10:50:54.864Z,6.42
2019-01-19T10:53:27.072Z,6.68
2019-01-19T10:55:59.276Z,6.68
2019-01-19T10:58:30.121Z,6.81
2019-01-19T11:01:02.274Z,6.87
2019-01-19T11:03:33.079Z,6.94
2019-01-19T11:06:06.277Z,7.24
2019-01-19T11:08:36.969Z,7.36
2019-01-19T11:11:09.377Z,7.11
2019-01-19T11:13:41.358Z,7.19
2019-01-19T11:16:14.367Z,8.51
2019-01-19T11:18:46.306Z,8.79
2019-01-19T11:21:18.276Z,8.79
2019-01-19T11:23:50.086Z,8.82
2019-01-19T11:26:20.803Z,8.82
2019-01-19T11:28:52.949Z,9.40
2019-01-19T11:31:24.946Z,10.43
2019-01-19T11:33:57.365Z,11.23
2019-01-19T11:36:29.327Z,11.73
2019-01-19T11:39:01.727Z,12.62
2019-01-19T11:41:34.273Z,12.62
2019-01-19T11:44:05.127Z,13.52
2019-01-19T11:46:36.982Z,14.28
2019-01-19T11:49:10.211Z,14.82
2019-01-19T11:51:41.058Z,15.38
2019-01-19T11:54:13.487Z,16.03
2019-01-19T11:56:45.888Z,16.84
2019-01-19T11:59:18.273Z,16.84
2019-01-19T12:01:50.462Z,17.40
2019-01-19T12:04:22.783Z,17.88
2019-01-19T12:06:55.265Z,17.88
2019-01-19T12:09:27.388Z,17.91
2019-01-19T12:11:59.311Z,17.93
2019-01-19T12:14:31.769Z,17.31
2019-01-19T12:17:04.313Z,16.36
2019-01-19T12:19:37.364Z,15.06
2019-01-19T12:22:09.638Z,12.07
2019-01-19T12:24:42.082Z,12.07
2019-01-19T12:27:12.775Z,11.12
2019-01-19T12:29:45.272Z,10.82
2019-01-19T12:32:17.283Z,10.88
2019-01-19T12:34:48.086Z,11.64
2019-01-19T12:37:20.239Z,13.15
2019-01-19T12:39:52.667Z,14.48
2019-01-19T12:42:25.117Z,16.17
2019-01-19T12:44:56.101Z,17.44
2019-01-19T12:47:27.272Z,18.30
2019-01-19T12:50:00.362Z,19.02
2019-01-19T12:52:32.610Z,19.02
2019-01-19T12:55:04.914Z,19.21
2019-01-19T12:57:37.260Z,19.44
2019-01-19T13:00:12.961Z,19.57
2019-01-19T13:02:45.208Z,19.73
2019-01-19T13:05:25.379Z,19.43
2019-01-19T13:07:57.711Z,19.23
2019-01-19T13:10:36.276Z,19.06
2019-01-19T13:13:29.269Z,19.63
2019-01-19T13:16:59.697Z,20.06
2019-01-19T13:20:36.770Z,20.55
2019-01-19T13:23:55.573Z,21.44
2019-01-19T13:27:16.245Z,21.80
2019-01-19T13:30:46.435Z,21.33
2019-01-19T13:34:17.398Z,18.62
2019-01-19T13:37:41.282Z,16.17
2019-01-19T13:41:13.695Z,16.17
2019-01-19T13:44:34.278Z,14.09
2019-01-19T13:47:49.709Z,12.26
2019-01-19T13:51:20.100Z,10.95
2019-01-19T13:54:46.026Z,9.24
2019-01-19T13:58:17.409Z,9.24
2019-01-19T14:01:38.279Z,8.71
2019-01-19T14:04:20.599Z,8.59
2019-01-19T14:08:00.115Z,8.65
2019-01-19T14:11:09.311Z,8.79
2019-01-19T14:15:10.282Z,8.82
2019-01-19T14:18:02.612Z,8.83
2019-01-19T14:21:24.274Z,8.72
2019-01-19T14:24:42.738Z,8.47
2019-01-19T14:28:11.293Z,8.93
2019-01-19T14:31:34.945Z,9.26
2019-01-19T14:34:45.944Z,8.75
2019-01-19T14:37:56.873Z,8.21
2019-01-19T14:40:53.288Z,7.91
2019-01-19T14:44:11.270Z,7.57
2019-01-19T14:47:28.934Z,7.16
2019-01-19T14:50:54.925Z,6.81
2019-01-19T14:54:35.689Z,6.39
2019-01-19T14:57:56.674Z,5.91
2019-01-19T15:01:09.753Z,5.31
2019-01-19T15:04:07.767Z,5.07
2019-01-19T15:07:32.085Z,4.91
2019-01-19T15:10:16.572Z,4.67
2019-01-19T15:14:21.561Z,4.09
2019-01-19T15:17:48.894Z,4.09
2019-01-19T15:21:02.714Z,3.85
2019-01-19T15:24:16.306Z,3.65
2019-01-19T15:27:49.695Z,3.48
2019-01-19T15:31:13.948Z,3.32
2019-01-19T15:34:47.694Z,3.15
2019-01-19T15:38:13.667Z,2.82
2019-01-19T15:41:54.647Z,2.82
2019-01-19T15:45:42.775Z,2.71
2019-01-19T15:49:29.249Z,2.58
2019-01-19T15:52:32.585Z,2.43
2019-01-19T15:56:07.347Z,2.32
2019-01-19T15:59:31.945Z,2.21
2019-01-19T16:02:59.282Z,2.21
2019-01-19T16:06:35.840Z,2.03
2019-01-19T16:10:12.349Z,1.95
2019-01-19T16:13:10.570Z,1.91
2019-01-19T16:16:34.656Z,1.70
2019-01-19T16:20:01.284Z,1.70
2019-01-19T16:23:15.574Z,1.51
2019-01-19T16:26:33.784Z,1.51
2019-01-19T16:29:51.688Z,1.43
2019-01-19T16:33:29.714Z,1.28
2019-01-19T16:37:12.098Z,1.28
2019-01-19T16:41:07.284Z,1.15
2019-01-19T16:44:11.861Z,1.11
2019-01-19T16:47:43.663Z,1.07
2019-01-19T16:51:03.613Z,1.06
2019-01-19T16:54:59.803Z,0.99
2019-01-19T16:58:49.281Z,0.99
2019-01-19T17:01:43.414Z,0.95
2019-01-19T17:04:57.946Z,0.94
2019-01-19T17:08:04.312Z,0.94
2019-01-19T17:11:37.747Z,0.93
2019-01-19T17:14:58.396Z,0.88
2019-01-19T17:18:07.285Z,0.65
2019-01-19T17:21:03.287Z,0.65
2019-01-19T17:24:15.100Z,0.62
2019-01-19T17:28:08.941Z,0.54
2019-01-19T17:31:53.699Z,0.52
2019-01-19T17:35:30.303Z,0.49
2019-01-19T17:38:41.936Z,0.49
2019-01-19T17:42:18.711Z,0.47
2019-01-19T17:45:51.660Z,0.43
2019-01-19T17:49:23.318Z,0.34
2019-01-19T17:53:17.026Z,0.37
2019-01-19T17:56:37.921Z,0.31
2019-01-19T18:00:37.356Z,0.22
2019-01-19T18:04:27.918Z,0.14
2019-01-19T18:07:43.938Z,0.16
2019-01-19T18:10:49.681Z,0.06
2019-01-19T18:14:53.553Z,0.13
2019-01-19T18:18:13.135Z,-0.07
2019-01-19T18:21:18.649Z,-0.08
2019-01-19T18:24:37.516Z,-0.05
2019-01-19T18:28:15.775Z,-0.13
2019-01-19T18:31:51.338Z,-0.16
2019-01-19T18:35:04.018Z,-0.19
2019-01-19T18:38:54.358Z,-0.19
2019-01-19T18:41:58.133Z,-0.27
2019-01-19T18:45:01.816Z,-0.33
2019-01-19T18:51:45.469Z,-0.24
2019-01-19T18:55:15.314Z,-0.24
2019-01-19T18:59:19.623Z,-0.27
2019-01-19T19:03:06.970Z,-0.30
2019-01-19T19:07:09.277Z,-0.26
2019-01-19T19:10:12.843Z,-0.34
2019-01-19T19:13:29.637Z,-0.50
2019-01-19T19:17:11.702Z,-0.51
2019-01-19T19:20:32.333Z,-0.50
2019-01-19T19:23:38.863Z,-0.54
2019-01-19T19:27:13.004Z,-0.54
2019-01-19T19:30:33.948Z,-0.54
2019-01-19T19:34:03.743Z,-0.58
2019-01-19T19:37:01.797Z,-0.56
2019-01-19T19:40:31.364Z,-0.57
2019-01-19T19:43:50.147Z,-0.60
2019-01-19T19:47:28.535Z,-0.60
2019-01-19T19:51:00.305Z,-0.69
2019-01-19T19:53:33.143Z,-0.69
2019-01-19T19:56:02.386Z,-0.65
2019-01-19T19:58:33.287Z,-0.70
2019-01-19T20:01:03.864Z,-0.69
2019-01-19T20:03:36.299Z,-0.69
2019-01-19T20:06:09.296Z,-0.74
2019-01-19T20:08:40.230Z,-0.75
2019-01-19T20:11:11.127Z,-0.72
2019-01-19T20:13:43.525Z,-0.74
2019-01-19T20:16:16.279Z,-0.80
2019-01-19T20:18:47.345Z,-0.84
2019-01-19T20:21:19.889Z,-0.82
2019-01-19T20:23:52.082Z,-0.87
2019-01-19T20:26:24.273Z,-0.89
2019-01-19T20:28:55.669Z,-0.82
2019-01-19T20:31:28.572Z,-0.80
2019-01-19T20:34:00.961Z,-0.85
2019-01-19T20:36:33.330Z,-0.84
2019-01-19T20:39:04.804Z,-0.86
2019-01-19T20:41:37.293Z,-0.93
2019-01-19T20:44:09.363Z,-1.02
2019-01-19T20:46:41.655Z,-1.06
2019-01-19T20:49:13.736Z,-1.06
2019-01-19T20:51:46.402Z,-1.04
2019-01-19T20:54:18.948Z,-1.08
2019-01-19T20:56:51.311Z,-1.08
2019-01-19T20:59:23.280Z,-1.09
2019-01-19T21:01:53.999Z,-1.20
2019-01-19T21:04:26.295Z,-1.20
2019-01-19T21:06:57.266Z,-1.24
2019-01-19T21:09:29.099Z,-1.24
2019-01-19T21:12:01.232Z,-1.18
2019-01-19T21:14:35.740Z,-1.25
2019-01-19T21:17:08.279Z,-1.31
2019-01-19T21:19:39.273Z,-1.24
2019-01-19T21:22:10.132Z,-1.24
2019-01-19T21:24:42.957Z,-1.22
2019-01-19T21:27:15.532Z,-1.23
2019-01-19T21:29:48.302Z,-1.27
2019-01-19T21:32:19.014Z,-1.20
2019-01-19T21:34:51.233Z,-1.15
2019-01-19T21:37:22.017Z,-1.29
2019-01-19T21:39:54.096Z,-1.29
2019-01-19T21:42:26.270Z,-1.29
2019-01-19T21:44:56.977Z,-1.46
2019-01-19T21:47:29.273Z,-1.55
2019-01-19T21:49:59.868Z,-1.48
2019-01-19T21:52:31.940Z,-1.45
2019-01-19T21:55:04.105Z,-1.39
2019-01-19T21:57:34.707Z,-1.42
2019-01-19T22:00:10.758Z,-1.51
2019-01-19T22:02:42.937Z,-1.51
2019-01-19T22:05:15.353Z,-1.46
2019-01-19T22:07:45.864Z,-1.29
2019-01-19T22:10:19.656Z,-1.22
2019-01-19T22:12:51.888Z,-1.23
2019-01-19T22:15:24.212Z,-1.25
2019-01-19T22:17:54.662Z,-1.22
2019-01-19T22:20:26.761Z,-1.18
2019-01-19T22:22:58.880Z,-1.18
2019-01-19T22:25:30.961Z,-1.14
2019-01-19T22:28:02.944Z,-1.22
2019-01-19T22:30:34.941Z,-1.17
2019-01-19T22:33:07.477Z,-1.20
2019-01-19T22:35:42.394Z,-1.25
2019-01-19T22:38:14.510Z,-1.26
2019-01-19T22:40:53.461Z,-1.28
2019-01-19T22:43:27.659Z,-1.28
2019-01-19T22:45:59.695Z,-1.29
2019-01-19T22:48:31.740Z,-1.25
2019-01-19T22:51:11.049Z,-1.24
2019-01-19T22:53:37.768Z,-1.24
2019-01-19T22:56:09.952Z,-1.24
2019-01-19T22:58:41.941Z,-1.27
2019-01-19T23:01:38.274Z,-1.26
2019-01-19T23:04:09.026Z,-1.19
2019-01-19T23:06:41.275Z,-1.27
2019-01-19T23:09:12.951Z,-1.37
2019-01-19T23:11:45.113Z,-1.35
2019-01-19T23:14:17.368Z,-1.43
2019-01-19T23:16:49.323Z,-1.43
2019-01-19T23:19:21.378Z,-1.43
2019-01-19T23:21:52.041Z,-1.43
2019-01-19T23:24:24.124Z,-1.47
2019-01-19T23:27:01.315Z,-1.38
2019-01-19T23:29:32.018Z,-1.25
2019-01-19T23:32:04.279Z,-1.25
2019-01-19T23:34:34.707Z,-1.25
2019-01-19T23:37:06.782Z,-1.36
2019-01-19T23:39:38.944Z,-1.34
2019-01-19T23:42:10.957Z,-1.32
2019-01-19T23:44:43.345Z,-1.34
2019-01-19T23:47:14.107Z,-1.38
2019-01-19T23:49:44.995Z,-1.53
2019-01-19T23:52:17.277Z,-1.60
2019-01-19T23:54:47.856Z,-1.60
2019-01-19T23:57:20.119Z,-1.57
2019-01-19T23:59:52.125Z,-1.45
